sensor_id;sensor_type;location;lat;lon;timestamp;temperature;humidity
21666;DHT22;10994;45.486;9.190;2022-09-21T00:02:03;20.40;99.90
21666;DHT22;10994;45.486;9.190;2022-09-21T00:04:29;20.50;99.90
21666;DHT22;10994;45.486;9.190;2022-09-21T00:06:54;20.40;99.90
21666;DHT22;10994;45.486;9.190;2022-09-21T00:09:20;20.30;99.90
21666;DHT22;10994;45.486;9.190;2022-09-21T00:11:46;20.40;99.90
21666;DHT22;10994;45.486;9.190;2022-09-21T00:14:13;20.40;99.90
21666;DHT22;10994;45.486;9.190;2022-09-21T00:16:40;20.40;99.90
21666;DHT22;10994;45.486;9.190;2022-09-21T00:19:07;20.50;99.90
21666;DHT22;10994;45.486;9.190;2022-09-21T00:21:33;20.40;99.90
21666;DHT22;10994;45.486;9.190;2022-09-21T00:23:59;20.40;99.90
21666;DHT22;10994;45.486;9.190;2022-09-21T00:26:27;20.50;99.90
21666;DHT22;10994;45.486;9.190;2022-09-21T00:28:58;20.50;99.90
21666;DHT22;10994;45.486;9.190;2022-09-21T00:31:25;20.50;99.90
21666;DHT22;10994;45.486;9.190;2022-09-21T00:33:51;20.50;99.90
21666;DHT22;10994;45.486;9.190;2022-09-21T00:36:19;20.50;99.90
21666;DHT22;10994;45.486;9.190;2022-09-21T00:38:50;20.40;99.90
21666;DHT22;10994;45.486;9.190;2022-09-21T00:41:16;20.40;99.90
21666;DHT22;10994;45.486;9.190;2022-09-21T00:43:47;20.50;99.90
21666;DHT22;10994;45.486;9.190;2022-09-21T00:46:26;20.40;99.90
21666;DHT22;10994;45.486;9.190;2022-09-21T00:48:53;20.40;99.90
21666;DHT22;10994;45.486;9.190;2022-09-21T00:51:19;20.40;99.90
21666;DHT22;10994;45.486;9.190;2022-09-21T00:53:47;20.40;99.90
21666;DHT22;10994;45.486;9.190;2022-09-21T00:56:15;20.40;99.90
21666;DHT22;10994;45.486;9.190;2022-09-21T00:58:48;20.30;99.90
21666;DHT22;10994;45.486;9.190;2022-09-21T01:01:15;20.20;99.90
21666;DHT22;10994;45.486;9.190;2022-09-21T01:03:46;20.20;99.90
21666;DHT22;10994;45.486;9.190;2022-09-21T01:06:14;20.30;99.90
21666;DHT22;10994;45.486;9.190;2022-09-21T01:08:41;20.20;99.90
21666;DHT22;10994;45.486;9.190;2022-09-21T01:13:50;20.10;99.90
21666;DHT22;10994;45.486;9.190;2022-09-21T01:19:22;20.10;99.90
21666;DHT22;10994;45.486;9.190;2022-09-21T01:22:08;20.20;99.90
21666;DHT22;10994;45.486;9.190;2022-09-21T01:28:01;20.20;99.90
21666;DHT22;10994;45.486;9.190;2022-09-21T01:30:33;20.20;99.90
21666;DHT22;10994;45.486;9.190;2022-09-21T01:33:08;20.00;99.90
21666;DHT22;10994;45.486;9.190;2022-09-21T01:35:42;20.00;99.90
21666;DHT22;10994;45.486;9.190;2022-09-21T01:38:13;20.00;99.90
21666;DHT22;10994;45.486;9.190;2022-09-21T01:40:46;20.00;99.90
21666;DHT22;10994;45.486;9.190;2022-09-21T01:43:19;19.80;99.90
21666;DHT22;10994;45.486;9.190;2022-09-21T01:45:50;19.80;99.90
21666;DHT22;10994;45.486;9.190;2022-09-21T01:48:17;19.70;99.90
21666;DHT22;10994;45.486;9.190;2022-09-21T01:50:49;19.70;99.90
21666;DHT22;10994;45.486;9.190;2022-09-21T01:53:27;19.70;99.90
21666;DHT22;10994;45.486;9.190;2022-09-21T01:55:58;19.60;99.90
21666;DHT22;10994;45.486;9.190;2022-09-21T02:01:17;19.90;99.90
21666;DHT22;10994;45.486;9.190;2022-09-21T02:03:46;19.90;99.90
21666;DHT22;10994;45.486;9.190;2022-09-21T02:06:14;20.00;99.90
21666;DHT22;10994;45.486;9.190;2022-09-21T02:08:40;19.90;99.90
21666;DHT22;10994;45.486;9.190;2022-09-21T02:11:07;19.90;99.90
21666;DHT22;10994;45.486;9.190;2022-09-21T02:13:35;19.90;99.90
21666;DHT22;10994;45.486;9.190;2022-09-21T02:21:11;19.90;99.90
21666;DHT22;10994;45.486;9.190;2022-09-21T02:24:03;19.90;99.90
21666;DHT22;10994;45.486;9.190;2022-09-21T02:26:37;19.90;99.90
21666;DHT22;10994;45.486;9.190;2022-09-21T02:32:07;19.70;99.90
21666;DHT22;10994;45.486;9.190;2022-09-21T02:34:43;19.60;99.90
21666;DHT22;10994;45.486;9.190;2022-09-21T02:37:20;19.70;99.90
21666;DHT22;10994;45.486;9.190;2022-09-21T02:42:40;19.80;99.90
21666;DHT22;10994;45.486;9.190;2022-09-21T02:45:12;19.70;99.90
21666;DHT22;10994;45.486;9.190;2022-09-21T02:47:49;19.80;99.90
21666;DHT22;10994;45.486;9.190;2022-09-21T02:50:32;19.70;99.90
21666;DHT22;10994;45.486;9.190;2022-09-21T02:53:01;19.60;99.90
21666;DHT22;10994;45.486;9.190;2022-09-21T02:55:29;19.70;99.90
21666;DHT22;10994;45.486;9.190;2022-09-21T02:57:55;19.70;99.90
21666;DHT22;10994;45.486;9.190;2022-09-21T03:00:21;19.60;99.90
21666;DHT22;10994;45.486;9.190;2022-09-21T03:02:47;19.60;99.90
21666;DHT22;10994;45.486;9.190;2022-09-21T03:05:13;19.60;99.90
21666;DHT22;10994;45.486;9.190;2022-09-21T03:07:40;19.60;99.90
21666;DHT22;10994;45.486;9.190;2022-09-21T03:10:06;19.70;99.90
21666;DHT22;10994;45.486;9.190;2022-09-21T03:12:32;19.70;99.90
21666;DHT22;10994;45.486;9.190;2022-09-21T03:14:58;19.80;99.90
21666;DHT22;10994;45.486;9.190;2022-09-21T03:17:25;19.70;99.90
21666;DHT22;10994;45.486;9.190;2022-09-21T03:19:51;19.80;99.90
21666;DHT22;10994;45.486;9.190;2022-09-21T03:22:20;19.70;99.90
21666;DHT22;10994;45.486;9.190;2022-09-21T03:24:46;19.80;99.90
21666;DHT22;10994;45.486;9.190;2022-09-21T03:27:14;19.80;99.90
21666;DHT22;10994;45.486;9.190;2022-09-21T03:29:40;19.80;99.90
21666;DHT22;10994;45.486;9.190;2022-09-21T03:32:06;19.90;99.90
21666;DHT22;10994;45.486;9.190;2022-09-21T03:34:32;19.90;99.90
21666;DHT22;10994;45.486;9.190;2022-09-21T03:37:00;19.90;99.90
21666;DHT22;10994;45.486;9.190;2022-09-21T03:39:26;19.80;99.90
21666;DHT22;10994;45.486;9.190;2022-09-21T03:41:52;19.80;99.90
21666;DHT22;10994;45.486;9.190;2022-09-21T03:44:21;19.90;99.90
21666;DHT22;10994;45.486;9.190;2022-09-21T03:46:47;19.80;99.90
21666;DHT22;10994;45.486;9.190;2022-09-21T03:49:12;19.80;99.90
21666;DHT22;10994;45.486;9.190;2022-09-21T03:51:38;19.80;99.90
21666;DHT22;10994;45.486;9.190;2022-09-21T03:54:05;19.70;99.90
21666;DHT22;10994;45.486;9.190;2022-09-21T03:56:30;19.80;99.90
21666;DHT22;10994;45.486;9.190;2022-09-21T03:58:59;19.90;99.90
21666;DHT22;10994;45.486;9.190;2022-09-21T04:01:25;19.90;99.90
21666;DHT22;10994;45.486;9.190;2022-09-21T04:03:50;19.90;99.90
21666;DHT22;10994;45.486;9.190;2022-09-21T04:06:17;20.00;99.90
21666;DHT22;10994;45.486;9.190;2022-09-21T04:08:42;20.10;99.90
21666;DHT22;10994;45.486;9.190;2022-09-21T04:11:12;20.10;99.90
21666;DHT22;10994;45.486;9.190;2022-09-21T04:13:38;20.10;99.90
21666;DHT22;10994;45.486;9.190;2022-09-21T04:16:05;20.20;99.90
21666;DHT22;10994;45.486;9.190;2022-09-21T04:18:31;20.20;99.90
21666;DHT22;10994;45.486;9.190;2022-09-21T04:20:57;20.20;99.90
21666;DHT22;10994;45.486;9.190;2022-09-21T04:23:22;20.10;99.90
21666;DHT22;10994;45.486;9.190;2022-09-21T04:25:48;20.10;99.90
21666;DHT22;10994;45.486;9.190;2022-09-21T04:28:17;20.10;99.90
21666;DHT22;10994;45.486;9.190;2022-09-21T04:30:43;20.20;99.90
21666;DHT22;10994;45.486;9.190;2022-09-21T04:33:09;20.30;99.90
21666;DHT22;10994;45.486;9.190;2022-09-21T04:35:34;20.30;99.90
21666;DHT22;10994;45.486;9.190;2022-09-21T04:38:00;20.30;99.90
21666;DHT22;10994;45.486;9.190;2022-09-21T04:40:26;20.30;99.90
21666;DHT22;10994;45.486;9.190;2022-09-21T04:42:53;20.20;99.90
21666;DHT22;10994;45.486;9.190;2022-09-21T04:45:19;19.80;99.90
21666;DHT22;10994;45.486;9.190;2022-09-21T04:47:45;19.60;99.90
21666;DHT22;10994;45.486;9.190;2022-09-21T04:50:11;19.60;99.90
21666;DHT22;10994;45.486;9.190;2022-09-21T04:52:36;19.50;99.90
21666;DHT22;10994;45.486;9.190;2022-09-21T04:55:02;19.40;99.90
21666;DHT22;10994;45.486;9.190;2022-09-21T04:57:28;19.20;99.90
21666;DHT22;10994;45.486;9.190;2022-09-21T04:59:54;18.90;99.90
21666;DHT22;10994;45.486;9.190;2022-09-21T05:02:19;18.90;99.90
21666;DHT22;10994;45.486;9.190;2022-09-21T05:04:45;19.10;99.90
21666;DHT22;10994;45.486;9.190;2022-09-21T05:07:11;19.10;99.90
21666;DHT22;10994;45.486;9.190;2022-09-21T05:09:37;19.10;99.90
21666;DHT22;10994;45.486;9.190;2022-09-21T05:12:21;19.10;99.90
21666;DHT22;10994;45.486;9.190;2022-09-21T05:14:46;19.10;99.90
21666;DHT22;10994;45.486;9.190;2022-09-21T05:17:12;19.10;99.90
21666;DHT22;10994;45.486;9.190;2022-09-21T05:19:38;19.10;99.90
21666;DHT22;10994;45.486;9.190;2022-09-21T05:22:04;19.00;99.90
21666;DHT22;10994;45.486;9.190;2022-09-21T05:24:30;19.10;99.90
21666;DHT22;10994;45.486;9.190;2022-09-21T05:26:55;18.80;99.90
21666;DHT22;10994;45.486;9.190;2022-09-21T05:29:21;18.30;99.90
21666;DHT22;10994;45.486;9.190;2022-09-21T05:31:56;18.30;99.90
21666;DHT22;10994;45.486;9.190;2022-09-21T05:36:57;17.90;99.90
21666;DHT22;10994;45.486;9.190;2022-09-21T05:39:24;17.80;99.90
21666;DHT22;10994;45.486;9.190;2022-09-21T05:41:49;18.00;99.90
21666;DHT22;10994;45.486;9.190;2022-09-21T05:44:15;18.20;99.90
21666;DHT22;10994;45.486;9.190;2022-09-21T05:49:51;18.00;99.90
21666;DHT22;10994;45.486;9.190;2022-09-21T05:52:20;18.20;99.90
21666;DHT22;10994;45.486;9.190;2022-09-21T05:58:17;18.20;99.90
21666;DHT22;10994;45.486;9.190;2022-09-21T06:03:33;17.80;99.90
21666;DHT22;10994;45.486;9.190;2022-09-21T06:06:01;17.60;99.90
21666;DHT22;10994;45.486;9.190;2022-09-21T06:08:27;17.60;99.90
21666;DHT22;10994;45.486;9.190;2022-09-21T06:10:53;17.70;99.90
21666;DHT22;10994;45.486;9.190;2022-09-21T06:13:19;17.50;99.90
21666;DHT22;10994;45.486;9.190;2022-09-21T06:15:45;17.70;99.90
21666;DHT22;10994;45.486;9.190;2022-09-21T06:18:11;17.90;99.90
21666;DHT22;10994;45.486;9.190;2022-09-21T06:20:37;18.00;99.90
21666;DHT22;10994;45.486;9.190;2022-09-21T06:23:10;18.10;99.90
21666;DHT22;10994;45.486;9.190;2022-09-21T06:25:36;18.10;99.90
21666;DHT22;10994;45.486;9.190;2022-09-21T06:28:08;18.10;99.90
21666;DHT22;10994;45.486;9.190;2022-09-21T06:30:35;18.10;99.90
21666;DHT22;10994;45.486;9.190;2022-09-21T06:33:05;17.70;99.90
21666;DHT22;10994;45.486;9.190;2022-09-21T06:35:33;17.50;99.90
21666;DHT22;10994;45.486;9.190;2022-09-21T06:38:00;17.50;99.90
21666;DHT22;10994;45.486;9.190;2022-09-21T06:40:27;17.60;99.90
21666;DHT22;10994;45.486;9.190;2022-09-21T06:43:00;17.60;99.90
21666;DHT22;10994;45.486;9.190;2022-09-21T06:45:26;17.60;99.90
21666;DHT22;10994;45.486;9.190;2022-09-21T06:47:52;17.50;99.90
21666;DHT22;10994;45.486;9.190;2022-09-21T06:50:18;17.60;99.90
21666;DHT22;10994;45.486;9.190;2022-09-21T06:52:44;17.40;99.90
21666;DHT22;10994;45.486;9.190;2022-09-21T06:55:11;17.30;99.90
21666;DHT22;10994;45.486;9.190;2022-09-21T06:57:36;17.20;99.90
21666;DHT22;10994;45.486;9.190;2022-09-21T07:00:05;17.30;99.90
21666;DHT22;10994;45.486;9.190;2022-09-21T07:02:31;17.30;99.90
21666;DHT22;10994;45.486;9.190;2022-09-21T07:04:57;17.30;99.90
21666;DHT22;10994;45.486;9.190;2022-09-21T07:07:24;17.40;99.90
21666;DHT22;10994;45.486;9.190;2022-09-21T07:09:50;17.40;99.90
21666;DHT22;10994;45.486;9.190;2022-09-21T07:12:17;17.40;99.90
21666;DHT22;10994;45.486;9.190;2022-09-21T07:14:42;17.40;99.90
21666;DHT22;10994;45.486;9.190;2022-09-21T07:17:12;17.50;99.90
21666;DHT22;10994;45.486;9.190;2022-09-21T07:19:39;17.40;99.90
21666;DHT22;10994;45.486;9.190;2022-09-21T07:22:05;17.50;99.90
21666;DHT22;10994;45.486;9.190;2022-09-21T07:24:31;17.60;99.90
21666;DHT22;10994;45.486;9.190;2022-09-21T07:29:30;17.80;99.90
21666;DHT22;10994;45.486;9.190;2022-09-21T07:31:56;17.90;99.90
21666;DHT22;10994;45.486;9.190;2022-09-21T07:34:22;17.90;99.90
21666;DHT22;10994;45.486;9.190;2022-09-21T07:36:47;17.80;99.90
21666;DHT22;10994;45.486;9.190;2022-09-21T07:39:23;17.90;99.90
21666;DHT22;10994;45.486;9.190;2022-09-21T07:41:51;17.90;99.90
21666;DHT22;10994;45.486;9.190;2022-09-21T07:44:17;17.90;99.90
21666;DHT22;10994;45.486;9.190;2022-09-21T07:46:47;17.80;99.90
21666;DHT22;10994;45.486;9.190;2022-09-21T07:49:13;17.90;99.90
21666;DHT22;10994;45.486;9.190;2022-09-21T07:51:39;17.90;99.90
21666;DHT22;10994;45.486;9.190;2022-09-21T07:54:05;17.90;99.90
21666;DHT22;10994;45.486;9.190;2022-09-21T07:56:30;17.90;99.90
21666;DHT22;10994;45.486;9.190;2022-09-21T07:58:56;18.00;99.90
21666;DHT22;10994;45.486;9.190;2022-09-21T08:01:39;18.10;99.90
21666;DHT22;10994;45.486;9.190;2022-09-21T08:04:07;18.20;99.90
21666;DHT22;10994;45.486;9.190;2022-09-21T08:06:35;18.50;99.90
21666;DHT22;10994;45.486;9.190;2022-09-21T08:09:03;18.60;99.90
21666;DHT22;10994;45.486;9.190;2022-09-21T08:11:30;18.80;99.90
21666;DHT22;10994;45.486;9.190;2022-09-21T08:13:58;18.80;99.90
21666;DHT22;10994;45.486;9.190;2022-09-21T08:16:26;18.70;99.90
21666;DHT22;10994;45.486;9.190;2022-09-21T08:18:53;18.70;99.90
21666;DHT22;10994;45.486;9.190;2022-09-21T08:21:19;18.70;99.90
21666;DHT22;10994;45.486;9.190;2022-09-21T08:23:46;18.80;99.90
21666;DHT22;10994;45.486;9.190;2022-09-21T08:26:15;18.90;99.90
21666;DHT22;10994;45.486;9.190;2022-09-21T08:28:50;18.90;99.90
21666;DHT22;10994;45.486;9.190;2022-09-21T08:31:18;18.80;99.90
21666;DHT22;10994;45.486;9.190;2022-09-21T08:33:45;18.90;99.90
21666;DHT22;10994;45.486;9.190;2022-09-21T08:36:11;18.70;99.90
21666;DHT22;10994;45.486;9.190;2022-09-21T08:38:38;18.90;99.90
21666;DHT22;10994;45.486;9.190;2022-09-21T08:41:34;19.10;99.90
21666;DHT22;10994;45.486;9.190;2022-09-21T08:46:37;18.90;99.90
21666;DHT22;10994;45.486;9.190;2022-09-21T08:49:10;19.00;99.90
21666;DHT22;10994;45.486;9.190;2022-09-21T08:51:46;19.10;99.90
21666;DHT22;10994;45.486;9.190;2022-09-21T08:54:18;19.10;99.90
21666;DHT22;10994;45.486;9.190;2022-09-21T08:56:45;19.10;99.90
21666;DHT22;10994;45.486;9.190;2022-09-21T08:59:14;19.30;99.90
21666;DHT22;10994;45.486;9.190;2022-09-21T09:02:16;19.20;99.90
21666;DHT22;10994;45.486;9.190;2022-09-21T09:10:41;19.30;99.90
21666;DHT22;10994;45.486;9.190;2022-09-21T09:13:31;19.50;99.90
21666;DHT22;10994;45.486;9.190;2022-09-21T09:16:12;19.70;99.90
21666;DHT22;10994;45.486;9.190;2022-09-21T09:18:46;19.70;99.90
21666;DHT22;10994;45.486;9.190;2022-09-21T09:21:40;19.60;99.90
21666;DHT22;10994;45.486;9.190;2022-09-21T09:24:15;19.70;99.90
21666;DHT22;10994;45.486;9.190;2022-09-21T09:27:05;19.80;99.90
21666;DHT22;10994;45.486;9.190;2022-09-21T09:32:25;20.00;99.90
21666;DHT22;10994;45.486;9.190;2022-09-21T09:34:56;20.10;99.90
21666;DHT22;10994;45.486;9.190;2022-09-21T09:37:31;20.20;99.90
21666;DHT22;10994;45.486;9.190;2022-09-21T09:39:58;20.20;99.90
21666;DHT22;10994;45.486;9.190;2022-09-21T09:48:01;18.90;99.90
21666;DHT22;10994;45.486;9.190;2022-09-21T09:50:35;18.70;99.90
21666;DHT22;10994;45.486;9.190;2022-09-21T09:53:04;18.60;99.90
21666;DHT22;10994;45.486;9.190;2022-09-21T09:55:46;18.50;99.90
21666;DHT22;10994;45.486;9.190;2022-09-21T09:58:19;18.60;99.90
21666;DHT22;10994;45.486;9.190;2022-09-21T10:00:49;18.60;99.90
21666;DHT22;10994;45.486;9.190;2022-09-21T10:03:17;18.90;99.90
21666;DHT22;10994;45.486;9.190;2022-09-21T10:05:44;18.50;99.90
21666;DHT22;10994;45.486;9.190;2022-09-21T10:11:02;18.70;99.90
21666;DHT22;10994;45.486;9.190;2022-09-21T10:13:30;18.80;99.90
21666;DHT22;10994;45.486;9.190;2022-09-21T10:16:02;18.80;99.90
21666;DHT22;10994;45.486;9.190;2022-09-21T10:18:52;18.80;99.90
21666;DHT22;10994;45.486;9.190;2022-09-21T10:24:03;19.40;99.90
21666;DHT22;10994;45.486;9.190;2022-09-21T10:26:35;19.70;99.90
21666;DHT22;10994;45.486;9.190;2022-09-21T10:29:17;19.80;99.90
21666;DHT22;10994;45.486;9.190;2022-09-21T10:32:04;19.80;99.90
21666;DHT22;10994;45.486;9.190;2022-09-21T10:34:33;19.80;99.90
21666;DHT22;10994;45.486;9.190;2022-09-21T10:37:01;19.50;99.90
21666;DHT22;10994;45.486;9.190;2022-09-21T10:39:31;19.40;99.90
21666;DHT22;10994;45.486;9.190;2022-09-21T10:42:12;19.60;99.90
21666;DHT22;10994;45.486;9.190;2022-09-21T10:44:47;19.60;99.90
21666;DHT22;10994;45.486;9.190;2022-09-21T10:50:00;20.10;99.90
21666;DHT22;10994;45.486;9.190;2022-09-21T10:52:41;20.30;99.90
21666;DHT22;10994;45.486;9.190;2022-09-21T10:55:16;20.40;99.90
21666;DHT22;10994;45.486;9.190;2022-09-21T10:57:43;20.50;99.90
21666;DHT22;10994;45.486;9.190;2022-09-21T11:00:30;20.40;99.90
21666;DHT22;10994;45.486;9.190;2022-09-21T11:03:02;20.50;99.90
21666;DHT22;10994;45.486;9.190;2022-09-21T11:05:33;20.70;99.90
21666;DHT22;10994;45.486;9.190;2022-09-21T11:08:05;20.80;99.90
21666;DHT22;10994;45.486;9.190;2022-09-21T11:11:05;20.90;99.90
21666;DHT22;10994;45.486;9.190;2022-09-21T11:16:40;20.50;99.90
21666;DHT22;10994;45.486;9.190;2022-09-21T11:19:19;20.50;99.90
21666;DHT22;10994;45.486;9.190;2022-09-21T11:21:53;20.40;99.90
21666;DHT22;10994;45.486;9.190;2022-09-21T11:27:31;20.70;99.90
21666;DHT22;10994;45.486;9.190;2022-09-21T11:30:16;20.90;99.90
21666;DHT22;10994;45.486;9.190;2022-09-21T11:35:20;20.90;99.90
21666;DHT22;10994;45.486;9.190;2022-09-21T12:16:36;21.90;99.90
21666;DHT22;10994;45.486;9.190;2022-09-21T12:21:55;22.40;99.90
21666;DHT22;10994;45.486;9.190;2022-09-21T12:24:32;22.00;99.90
21666;DHT22;10994;45.486;9.190;2022-09-21T12:27:08;21.60;99.90
21666;DHT22;10994;45.486;9.190;2022-09-21T12:29:43;21.90;99.90
21666;DHT22;10994;45.486;9.190;2022-09-21T12:32:35;22.00;99.90
21666;DHT22;10994;45.486;9.190;2022-09-21T12:35:04;22.10;99.90
21666;DHT22;10994;45.486;9.190;2022-09-21T12:37:37;22.30;99.90
21666;DHT22;10994;45.486;9.190;2022-09-21T12:45:55;23.30;99.90
21666;DHT22;10994;45.486;9.190;2022-09-21T12:48:34;23.20;99.90
21666;DHT22;10994;45.486;9.190;2022-09-21T12:53:49;23.10;99.90
21666;DHT22;10994;45.486;9.190;2022-09-21T12:56:23;22.70;99.90
21666;DHT22;10994;45.486;9.190;2022-09-21T12:59:07;22.60;99.90
21666;DHT22;10994;45.486;9.190;2022-09-21T13:04:43;22.80;99.90
21666;DHT22;10994;45.486;9.190;2022-09-21T13:09:59;22.80;99.90
21666;DHT22;10994;45.486;9.190;2022-09-21T13:12:29;22.40;99.90
21666;DHT22;10994;45.486;9.190;2022-09-21T13:15:23;22.20;99.90
21666;DHT22;10994;45.486;9.190;2022-09-21T13:18:13;22.10;99.90
21666;DHT22;10994;45.486;9.190;2022-09-21T13:20:41;22.10;99.90
21666;DHT22;10994;45.486;9.190;2022-09-21T13:23:16;22.20;99.90
21666;DHT22;10994;45.486;9.190;2022-09-21T13:25:47;22.30;99.90
21666;DHT22;10994;45.486;9.190;2022-09-21T13:33:29;22.30;99.90
21666;DHT22;10994;45.486;9.190;2022-09-21T13:36:09;22.40;99.90
21666;DHT22;10994;45.486;9.190;2022-09-21T13:46:46;22.30;99.90
21666;DHT22;10994;45.486;9.190;2022-09-21T13:49:16;22.00;99.90
21666;DHT22;10994;45.486;9.190;2022-09-21T13:52:05;21.80;99.90
21666;DHT22;10994;45.486;9.190;2022-09-21T13:54:32;21.90;99.90
21666;DHT22;10994;45.486;9.190;2022-09-21T13:57:02;22.00;99.90
21666;DHT22;10994;45.486;9.190;2022-09-21T13:59:31;22.00;99.90
21666;DHT22;10994;45.486;9.190;2022-09-21T14:01:57;21.70;99.90
21666;DHT22;10994;45.486;9.190;2022-09-21T14:04:26;21.70;99.90
21666;DHT22;10994;45.486;9.190;2022-09-21T14:06:54;21.70;99.90
21666;DHT22;10994;45.486;9.190;2022-09-21T14:09:26;21.90;99.90
21666;DHT22;10994;45.486;9.190;2022-09-21T14:12:17;21.90;99.90
21666;DHT22;10994;45.486;9.190;2022-09-21T14:15:07;21.80;99.90
21666;DHT22;10994;45.486;9.190;2022-09-21T14:17:36;21.80;99.90
21666;DHT22;10994;45.486;9.190;2022-09-21T14:20:04;22.00;99.90
21666;DHT22;10994;45.486;9.190;2022-09-21T14:22:33;21.90;99.90
21666;DHT22;10994;45.486;9.190;2022-09-21T14:25:23;22.00;99.90
21666;DHT22;10994;45.486;9.190;2022-09-21T14:27:50;22.10;99.90
21666;DHT22;10994;45.486;9.190;2022-09-21T14:30:23;21.90;99.90
21666;DHT22;10994;45.486;9.190;2022-09-21T14:35:32;21.70;99.90
21666;DHT22;10994;45.486;9.190;2022-09-21T14:38:00;21.60;99.90
21666;DHT22;10994;45.486;9.190;2022-09-21T14:40:33;21.70;99.90
21666;DHT22;10994;45.486;9.190;2022-09-21T14:43:09;21.60;99.90
21666;DHT22;10994;45.486;9.190;2022-09-21T14:56:46;21.80;99.90
21666;DHT22;10994;45.486;9.190;2022-09-21T15:07:41;22.00;99.90
21666;DHT22;10994;45.486;9.190;2022-09-21T15:13:37;21.90;99.90
21666;DHT22;10994;45.486;9.190;2022-09-21T15:19:01;22.10;99.90
21666;DHT22;10994;45.486;9.190;2022-09-21T15:21:30;22.00;99.90
21666;DHT22;10994;45.486;9.190;2022-09-21T15:23:58;22.20;99.90
21666;DHT22;10994;45.486;9.190;2022-09-21T15:26:29;22.40;99.90
21666;DHT22;10994;45.486;9.190;2022-09-21T15:29:01;22.40;99.90
21666;DHT22;10994;45.486;9.190;2022-09-21T15:31:36;22.20;99.90
21666;DHT22;10994;45.486;9.190;2022-09-21T15:34:06;22.10;99.90
21666;DHT22;10994;45.486;9.190;2022-09-21T15:36:37;22.20;99.90
21666;DHT22;10994;45.486;9.190;2022-09-21T15:39:04;22.10;99.90
21666;DHT22;10994;45.486;9.190;2022-09-21T15:41:44;22.30;99.90
21666;DHT22;10994;45.486;9.190;2022-09-21T15:46:40;22.50;99.90
21666;DHT22;10994;45.486;9.190;2022-09-21T15:49:12;22.50;99.90
21666;DHT22;10994;45.486;9.190;2022-09-21T15:51:41;22.40;99.90
21666;DHT22;10994;45.486;9.190;2022-09-21T15:54:34;22.40;99.90
21666;DHT22;10994;45.486;9.190;2022-09-21T15:57:20;22.60;99.90
21666;DHT22;10994;45.486;9.190;2022-09-21T15:59:49;22.60;99.90
21666;DHT22;10994;45.486;9.190;2022-09-21T16:02:22;22.60;99.90
21666;DHT22;10994;45.486;9.190;2022-09-21T16:04:48;22.30;99.90
21666;DHT22;10994;45.486;9.190;2022-09-21T16:07:25;22.20;99.90
21666;DHT22;10994;45.486;9.190;2022-09-21T16:09:54;22.30;99.90
21666;DHT22;10994;45.486;9.190;2022-09-21T16:12:38;22.20;99.90
21666;DHT22;10994;45.486;9.190;2022-09-21T16:17:53;22.00;99.90
21666;DHT22;10994;45.486;9.190;2022-09-21T16:20:22;22.00;99.90
21666;DHT22;10994;45.486;9.190;2022-09-21T16:22:51;22.00;99.90
21666;DHT22;10994;45.486;9.190;2022-09-21T16:27:53;22.10;99.90
21666;DHT22;10994;45.486;9.190;2022-09-21T16:35:52;22.10;99.90
21666;DHT22;10994;45.486;9.190;2022-09-21T16:38:18;22.00;99.90
21666;DHT22;10994;45.486;9.190;2022-09-21T16:40:45;22.00;99.90
21666;DHT22;10994;45.486;9.190;2022-09-21T16:43:11;22.00;99.90
21666;DHT22;10994;45.486;9.190;2022-09-21T16:45:37;22.00;99.90
21666;DHT22;10994;45.486;9.190;2022-09-21T16:48:03;22.10;99.90
21666;DHT22;10994;45.486;9.190;2022-09-21T16:50:32;22.10;99.90
21666;DHT22;10994;45.486;9.190;2022-09-21T16:52:58;21.80;99.90
21666;DHT22;10994;45.486;9.190;2022-09-21T16:55:24;21.70;99.90
21666;DHT22;10994;45.486;9.190;2022-09-21T16:57:50;21.70;99.90
21666;DHT22;10994;45.486;9.190;2022-09-21T17:00:17;21.70;99.90
21666;DHT22;10994;45.486;9.190;2022-09-21T17:02:46;21.80;99.90
21666;DHT22;10994;45.486;9.190;2022-09-21T17:05:14;21.80;99.90
21666;DHT22;10994;45.486;9.190;2022-09-21T17:07:55;21.90;99.90
21666;DHT22;10994;45.486;9.190;2022-09-21T17:10:28;21.90;99.90
21666;DHT22;10994;45.486;9.190;2022-09-21T17:12:55;21.80;99.90
21666;DHT22;10994;45.486;9.190;2022-09-21T17:15:22;21.70;99.90
21666;DHT22;10994;45.486;9.190;2022-09-21T17:17:48;21.70;99.90
21666;DHT22;10994;45.486;9.190;2022-09-21T17:20:26;21.80;99.90
21666;DHT22;10994;45.486;9.190;2022-09-21T17:22:53;21.80;99.90
21666;DHT22;10994;45.486;9.190;2022-09-21T17:25:18;21.80;99.90
21666;DHT22;10994;45.486;9.190;2022-09-21T17:27:44;21.80;99.90
21666;DHT22;10994;45.486;9.190;2022-09-21T17:30:11;21.70;99.90
21666;DHT22;10994;45.486;9.190;2022-09-21T17:32:39;21.60;99.90
21666;DHT22;10994;45.486;9.190;2022-09-21T17:35:32;21.60;99.90
21666;DHT22;10994;45.486;9.190;2022-09-21T17:38:00;21.50;99.90
21666;DHT22;10994;45.486;9.190;2022-09-21T17:40:27;21.50;99.90
21666;DHT22;10994;45.486;9.190;2022-09-21T17:43:31;21.40;99.90
21666;DHT22;10994;45.486;9.190;2022-09-21T17:46:19;21.30;99.90
21666;DHT22;10994;45.486;9.190;2022-09-21T17:48:47;21.20;99.90
21666;DHT22;10994;45.486;9.190;2022-09-21T17:51:16;21.20;99.90
21666;DHT22;10994;45.486;9.190;2022-09-21T17:54:02;21.20;99.90
21666;DHT22;10994;45.486;9.190;2022-09-21T17:56:43;21.20;99.90
21666;DHT22;10994;45.486;9.190;2022-09-21T17:59:37;21.30;99.90
21666;DHT22;10994;45.486;9.190;2022-09-21T18:02:21;21.30;99.90
21666;DHT22;10994;45.486;9.190;2022-09-21T18:04:50;21.20;99.90
21666;DHT22;10994;45.486;9.190;2022-09-21T18:07:18;21.10;99.90
21666;DHT22;10994;45.486;9.190;2022-09-21T18:09:44;21.10;99.90
21666;DHT22;10994;45.486;9.190;2022-09-21T18:15:11;20.90;99.90
21666;DHT22;10994;45.486;9.190;2022-09-21T18:17:55;21.00;99.90
21666;DHT22;10994;45.486;9.190;2022-09-21T18:24:00;21.00;99.90
21666;DHT22;10994;45.486;9.190;2022-09-21T18:26:35;21.00;99.90
21666;DHT22;10994;45.486;9.190;2022-09-21T18:29:03;21.00;99.90
21666;DHT22;10994;45.486;9.190;2022-09-21T18:39:53;20.80;99.90
21666;DHT22;10994;45.486;9.190;2022-09-21T18:45:12;20.70;99.90
21666;DHT22;10994;45.486;9.190;2022-09-21T18:50:50;20.50;99.90
21666;DHT22;10994;45.486;9.190;2022-09-21T18:53:51;20.40;99.90
21666;DHT22;10994;45.486;9.190;2022-09-21T18:59:13;20.50;99.90
21666;DHT22;10994;45.486;9.190;2022-09-21T19:01:44;20.50;99.90
21666;DHT22;10994;45.486;9.190;2022-09-21T19:04:12;20.50;99.90
21666;DHT22;10994;45.486;9.190;2022-09-21T19:09:55;20.40;99.90
21666;DHT22;10994;45.486;9.190;2022-09-21T19:15:29;20.30;99.90
21666;DHT22;10994;45.486;9.190;2022-09-21T19:21:04;20.30;99.90
21666;DHT22;10994;45.486;9.190;2022-09-21T19:31:55;20.20;99.90
21666;DHT22;10994;45.486;9.190;2022-09-21T19:34:21;20.10;99.90
21666;DHT22;10994;45.486;9.190;2022-09-21T19:36:47;20.20;99.90